Terminal Aerodrome Forecast
Issued by NWS

Home | Current Version | Previous Version | Text Only | Print | Product List | Glossary On
Versions: 1 2 3 4 5 6 7 8 9 10 11 12 13 14 15 16 17 18
000
FTUS43 KDVN 180700 AAA
TAFCID
TAF AMD
KCID 180744Z 1808/1906 VRB02KT 1SM BR SCT004
      TEMPO 1808/1812 1/4SM FG VV001
     FM181400 18006KT P6SM BKN018
     FM181800 21009KT P6SM BKN035
      TEMPO 1900/1904 5SM -TSRA BR BKN020CB=

USA.gov is the U.S. government's official web portal to all federal, state and local government web resources and services.